createdAt,value
2018-08-19T00:01:03.907Z,3.07
2018-08-19T00:03:31.422Z,3.73
2018-08-19T00:05:58.912Z,3.40
2018-08-19T00:08:26.476Z,3.47
2018-08-19T00:10:53.972Z,2.90
2018-08-19T00:13:21.493Z,3.90
2018-08-19T00:15:48.995Z,3.83
2018-08-19T00:18:16.657Z,3.37
2018-08-19T00:20:44.162Z,2.87
2018-08-19T00:23:11.977Z,3.13
2018-08-19T00:25:39.481Z,3.00
2018-08-19T00:28:06.983Z,3.80
2018-08-19T00:30:34.509Z,3.13
2018-08-19T00:33:02.012Z,3.37
2018-08-19T00:35:29.522Z,2.93
2018-08-19T00:37:57.038Z,3.57
2018-08-19T00:40:24.558Z,3.40
2018-08-19T00:42:52.055Z,3.20
2018-08-19T00:45:19.571Z,3.30
2018-08-19T00:47:47.068Z,2.80
2018-08-19T00:50:15.809Z,3.10
2018-08-19T00:52:43.305Z,2.93
2018-08-19T00:55:10.853Z,3.37
2018-08-19T00:57:39.088Z,3.23
2018-08-19T01:00:06.781Z,3.67
2018-08-19T01:02:34.277Z,3.00
2018-08-19T01:05:01.791Z,2.83
2018-08-19T01:07:29.280Z,3.00
2018-08-19T01:09:56.971Z,3.50
2018-08-19T01:12:24.456Z,3.20
2018-08-19T01:14:51.966Z,3.03
2018-08-19T01:17:19.462Z,2.60
2018-08-19T01:19:46.981Z,2.90
2018-08-19T01:22:14.967Z,3.30
2018-08-19T01:24:42.486Z,3.20
2018-08-19T01:27:09.981Z,2.53
2018-08-19T01:29:37.482Z,2.80
2018-08-19T01:32:05.599Z,3.43
2018-08-19T01:34:33.095Z,2.90
2018-08-19T01:37:00.611Z,3.40
2018-08-19T01:39:28.111Z,3.00
2018-08-19T01:41:56.534Z,3.10
2018-08-19T01:44:24.021Z,3.40
2018-08-19T01:46:51.529Z,3.53
2018-08-19T01:49:19.004Z,2.97
2018-08-19T01:51:46.709Z,3.20
2018-08-19T01:54:14.414Z,3.10
2018-08-19T01:56:41.926Z,3.20
2018-08-19T01:59:09.419Z,2.70
2018-08-19T02:01:36.981Z,3.30
2018-08-19T02:04:04.472Z,3.10
2018-08-19T02:06:31.965Z,3.20
2018-08-19T02:08:59.462Z,3.10
2018-08-19T02:11:27.738Z,2.93
2018-08-19T02:13:55.458Z,4.03
2018-08-19T02:16:22.974Z,3.80
2018-08-19T02:18:50.483Z,3.77
2018-08-19T02:21:17.982Z,3.80
2018-08-19T02:23:45.534Z,3.47
2018-08-19T02:26:13.061Z,3.90
2018-08-19T02:28:40.550Z,3.40
2018-08-19T02:31:08.822Z,3.60
2018-08-19T02:33:36.459Z,3.30
2018-08-19T02:36:03.967Z,4.20
2018-08-19T02:38:31.460Z,4.30
2018-08-19T02:40:58.992Z,4.50
2018-08-19T02:43:26.633Z,3.37
2018-08-19T02:45:54.153Z,3.90
2018-08-19T02:48:21.686Z,3.93
2018-08-19T02:50:49.217Z,4.10
2018-08-19T02:53:16.819Z,4.35
2018-08-19T02:55:44.380Z,4.00
2018-08-19T02:58:12.021Z,5.13
2018-08-19T03:00:40.455Z,5.10
2018-08-19T03:03:07.941Z,4.77
2018-08-19T03:05:35.510Z,4.03
2018-08-19T03:08:03.034Z,3.77
2018-08-19T03:10:30.522Z,4.63
2018-08-19T03:12:58.058Z,5.20
2018-08-19T03:15:26.474Z,5.17
2018-08-19T03:17:53.974Z,4.70
2018-08-19T03:20:21.480Z,3.97
2018-08-19T03:22:48.999Z,4.37
2018-08-19T03:25:17.318Z,4.63
2018-08-19T03:27:45.000Z,4.63
2018-08-19T03:30:13.316Z,4.67
2018-08-19T03:32:40.831Z,4.27
2018-08-19T03:35:08.323Z,4.30
2018-08-19T03:37:35.867Z,4.73
2018-08-19T03:40:03.369Z,5.07
2018-08-19T03:42:30.890Z,4.40
2018-08-19T03:44:58.402Z,4.47
2018-08-19T03:47:25.938Z,4.93
2018-08-19T03:49:53.423Z,4.13
2018-08-19T03:52:20.963Z,5.00
2018-08-19T03:54:48.463Z,4.63
2018-08-19T03:57:15.980Z,4.40
2018-08-19T03:59:43.479Z,4.07
2018-08-19T04:02:10.998Z,4.75
2018-08-19T04:04:38.495Z,4.40
2018-08-19T04:07:06.000Z,4.28
2018-08-19T04:09:33.492Z,4.23
2018-08-19T04:12:00.994Z,3.77
2018-08-19T04:14:28.492Z,4.17
2018-08-19T04:16:56.013Z,4.13
2018-08-19T04:19:23.494Z,4.37
2018-08-19T04:21:50.991Z,3.97
2018-08-19T04:24:18.478Z,4.50
2018-08-19T04:26:47.657Z,4.12
2018-08-19T04:29:15.434Z,4.85
2018-08-19T04:31:42.921Z,6.13
2018-08-19T04:34:11.204Z,5.87
2018-08-19T04:36:38.697Z,6.17
2018-08-19T04:39:06.318Z,6.07
2018-08-19T04:41:33.811Z,5.67
2018-08-19T04:44:01.323Z,7.00
2018-08-19T04:46:28.804Z,5.87
2018-08-19T04:48:56.450Z,5.50
2018-08-19T04:51:23.949Z,5.10
2018-08-19T04:53:51.462Z,5.90
2018-08-19T04:56:18.953Z,5.33
2018-08-19T04:58:47.173Z,4.50
2018-08-19T05:01:14.663Z,5.67
2018-08-19T05:03:42.170Z,5.57
2018-08-19T05:06:09.645Z,5.30
2018-08-19T05:08:37.150Z,5.93
2018-08-19T05:11:04.655Z,5.23
2018-08-19T05:13:32.162Z,5.27
2018-08-19T05:15:59.655Z,4.47
2018-08-19T05:18:27.162Z,4.47
2018-08-19T05:20:54.670Z,5.03
2018-08-19T05:23:22.207Z,4.90
2018-08-19T05:25:49.726Z,4.50
2018-08-19T05:28:17.304Z,4.73
2018-08-19T05:30:44.807Z,4.57
2018-08-19T05:33:12.493Z,5.20
2018-08-19T05:35:39.977Z,5.00
2018-08-19T05:38:07.670Z,4.90
2018-08-19T05:40:35.485Z,4.73
2018-08-19T05:43:03.761Z,5.82
2018-08-19T05:45:31.253Z,5.27
2018-08-19T05:47:58.761Z,4.83
2018-08-19T05:50:26.425Z,4.90
2018-08-19T05:52:53.915Z,4.60
2018-08-19T05:55:21.415Z,4.43
2018-08-19T05:57:48.910Z,4.40
2018-08-19T06:00:16.492Z,4.30
2018-08-19T06:02:45.009Z,4.70
2018-08-19T06:05:12.510Z,4.57
2018-08-19T06:07:40.032Z,3.83
2018-08-19T06:10:08.100Z,3.30
2018-08-19T06:12:35.802Z,2.90
2018-08-19T06:15:03.305Z,5.90
2018-08-19T06:17:30.815Z,3.40
2018-08-19T06:19:58.338Z,3.13
2018-08-19T06:22:25.891Z,3.17
2018-08-19T06:24:53.602Z,3.83
2018-08-19T06:27:21.097Z,3.40
2018-08-19T06:29:48.607Z,3.50
2018-08-19T06:32:16.337Z,3.50
2018-08-19T06:34:43.906Z,2.90
2018-08-19T06:37:11.449Z,3.13
2018-08-19T06:39:39.029Z,2.93
2018-08-19T06:42:06.874Z,3.23
2018-08-19T06:44:34.386Z,5.10
2018-08-19T06:47:02.115Z,3.20
2018-08-19T06:49:30.165Z,2.87
2018-08-19T06:51:57.671Z,3.47
2018-08-19T06:54:25.940Z,2.70
2018-08-19T06:56:53.433Z,3.00
2018-08-19T06:59:20.932Z,3.03
2018-08-19T07:01:48.421Z,2.80
2018-08-19T07:04:16.856Z,3.80
2018-08-19T07:06:44.392Z,2.90
2018-08-19T07:09:11.922Z,2.80
2018-08-19T07:11:39.875Z,3.37
2018-08-19T07:14:07.645Z,3.33
2018-08-19T07:17:01.147Z,2.80
2018-08-19T07:19:28.675Z,3.20
2018-08-19T07:21:56.282Z,3.37
2018-08-19T07:24:23.789Z,3.13
2018-08-19T07:26:52.072Z,3.17
2018-08-19T07:29:19.619Z,3.10
2018-08-19T07:31:47.109Z,3.23
2018-08-19T07:34:14.984Z,3.80
2018-08-19T07:36:42.473Z,3.30
2018-08-19T07:39:09.963Z,3.60
2018-08-19T07:41:37.534Z,3.60
2018-08-19T07:44:05.049Z,3.73
2018-08-19T07:46:32.582Z,3.40
2018-08-19T07:49:00.089Z,3.63
2018-08-19T07:51:27.598Z,2.97
2018-08-19T07:53:55.105Z,3.47
2018-08-19T07:56:22.621Z,3.30
2018-08-19T07:58:50.131Z,3.00
2018-08-19T08:01:18.401Z,3.07
2018-08-19T08:03:45.892Z,3.30
2018-08-19T08:06:13.411Z,2.80
2018-08-19T08:08:40.904Z,3.63
2018-08-19T08:11:08.836Z,3.08
2018-08-19T08:13:36.481Z,4.30
2018-08-19T08:16:03.989Z,3.27
2018-08-19T08:18:31.496Z,2.70
2018-08-19T08:20:59.003Z,3.10
2018-08-19T08:23:26.641Z,3.20
2018-08-19T08:25:54.143Z,2.90
2018-08-19T08:28:21.634Z,3.00
2018-08-19T08:30:49.168Z,3.27
2018-08-19T08:33:16.824Z,2.50
2018-08-19T08:35:45.166Z,3.50
2018-08-19T08:38:12.725Z,7.20
2018-08-19T08:40:40.287Z,10.47
2018-08-19T08:43:08.087Z,6.77
2018-08-19T08:45:36.481Z,3.87
2018-08-19T08:48:04.016Z,3.00
2018-08-19T08:50:31.518Z,2.80
2018-08-19T08:52:59.018Z,2.50
2018-08-19T08:55:26.686Z,3.57
2018-08-19T08:57:54.183Z,3.40
2018-08-19T09:00:21.695Z,3.50
2018-08-19T09:02:49.270Z,4.20
2018-08-19T09:05:16.914Z,3.57
2018-08-19T09:07:44.439Z,4.23
2018-08-19T09:10:11.935Z,3.40
2018-08-19T09:12:39.555Z,4.00
2018-08-19T09:15:07.069Z,4.03
2018-08-19T09:17:34.571Z,3.97
2018-08-19T09:20:02.071Z,3.70
2018-08-19T09:22:29.594Z,4.17
2018-08-19T09:24:57.856Z,7.40
2018-08-19T09:27:25.464Z,11.63
2018-08-19T09:29:52.952Z,5.23
2018-08-19T09:32:20.476Z,4.50
2018-08-19T09:34:47.966Z,4.10
2018-08-19T09:37:15.610Z,5.15
2018-08-19T09:39:43.106Z,4.27
2018-08-19T09:42:10.615Z,4.20
2018-08-19T09:44:38.106Z,4.43
2018-08-19T09:47:06.024Z,4.63
2018-08-19T09:49:33.540Z,4.10
2018-08-19T09:52:01.161Z,3.73
2018-08-19T09:54:28.674Z,3.87
2018-08-19T09:56:57.012Z,5.50
2018-08-19T09:59:25.630Z,3.40
2018-08-19T10:01:53.707Z,4.27
2018-08-19T10:04:21.721Z,3.57
2018-08-19T10:06:49.817Z,3.90
2018-08-19T10:09:18.496Z,3.47
2018-08-19T10:11:46.748Z,4.47
2018-08-19T10:14:15.115Z,3.20
2018-08-19T10:16:42.630Z,4.30
2018-08-19T10:19:10.348Z,5.47
2018-08-19T10:21:38.022Z,3.43
2018-08-19T10:24:05.863Z,3.05
2018-08-19T10:26:33.428Z,3.13
2018-08-19T10:29:00.922Z,3.20
2018-08-19T10:31:28.494Z,3.78
2018-08-19T10:33:55.959Z,4.00
2018-08-19T10:36:23.473Z,3.10
2018-08-19T10:38:50.986Z,2.97
2018-08-19T10:41:18.485Z,3.53
2018-08-19T10:43:46.707Z,2.97
2018-08-19T10:46:14.219Z,2.70
2018-08-19T10:48:41.709Z,4.93
2018-08-19T10:51:09.554Z,2.50
2018-08-19T10:53:37.829Z,2.60
2018-08-19T10:56:05.520Z,3.20
2018-08-19T10:58:33.075Z,2.70
2018-08-19T11:01:00.535Z,2.40
2018-08-19T11:03:28.035Z,2.45
2018-08-19T11:05:55.802Z,2.07
2018-08-19T11:08:23.301Z,2.57
2018-08-19T11:10:50.790Z,2.30
2018-08-19T11:13:19.127Z,2.50
2018-08-19T11:15:46.826Z,2.47
2018-08-19T11:18:15.100Z,2.40
2018-08-19T11:20:42.605Z,2.47
2018-08-19T11:23:10.229Z,3.07
2018-08-19T11:25:37.733Z,2.07
2018-08-19T11:28:05.466Z,2.60
2018-08-19T11:30:32.953Z,2.00
2018-08-19T11:33:00.474Z,2.57
2018-08-19T11:35:28.753Z,1.97
2018-08-19T11:37:56.421Z,2.20
2018-08-19T11:40:24.689Z,2.37
2018-08-19T11:42:52.316Z,3.30
2018-08-19T11:45:19.818Z,3.03
2018-08-19T11:47:47.339Z,3.03
2018-08-19T11:50:15.007Z,2.30
2018-08-19T11:52:42.523Z,2.17
2018-08-19T11:55:11.784Z,2.50
2018-08-19T11:57:39.310Z,2.53
2018-08-19T12:00:06.936Z,2.47
2018-08-19T12:02:34.431Z,2.20
2018-08-19T12:05:01.923Z,2.40
2018-08-19T12:07:29.442Z,2.83
2018-08-19T12:09:56.946Z,2.60
2018-08-19T12:12:24.467Z,3.30
2018-08-19T12:14:51.988Z,2.17
2018-08-19T12:17:19.477Z,2.00
2018-08-19T12:19:47.777Z,2.20
2018-08-19T12:22:15.502Z,2.13
2018-08-19T12:24:43.040Z,2.23
2018-08-19T12:27:11.155Z,2.17
2018-08-19T12:29:38.684Z,3.70
2018-08-19T12:32:06.302Z,2.53
2018-08-19T12:34:34.579Z,2.40
2018-08-19T12:37:02.079Z,2.47
2018-08-19T12:39:29.601Z,5.13
2018-08-19T12:41:57.862Z,3.90
2018-08-19T12:44:25.798Z,2.57
2018-08-19T12:46:54.062Z,2.43
2018-08-19T12:49:21.578Z,2.53
2018-08-19T12:51:49.075Z,2.40
2018-08-19T12:54:16.805Z,2.50
2018-08-19T12:56:44.298Z,2.13
2018-08-19T12:59:11.808Z,2.17
2018-08-19T13:01:39.294Z,2.60
2018-08-19T13:04:07.277Z,2.43
2018-08-19T13:06:35.498Z,2.07
2018-08-19T13:09:03.029Z,3.20
2018-08-19T13:11:30.511Z,3.03
2018-08-19T13:13:58.023Z,2.50
2018-08-19T13:16:25.783Z,2.60
2018-08-19T13:18:53.298Z,2.47
2018-08-19T13:21:20.788Z,2.07
2018-08-19T13:23:48.311Z,2.70
2018-08-19T13:26:15.890Z,2.23
2018-08-19T13:28:43.451Z,2.40
2018-08-19T13:31:11.025Z,2.70
2018-08-19T13:33:38.562Z,2.23
2018-08-19T13:36:06.213Z,2.43
2018-08-19T13:38:33.698Z,2.30
2018-08-19T13:41:01.209Z,2.30
2018-08-19T13:43:28.695Z,2.80
2018-08-19T13:45:56.667Z,2.00
2018-08-19T13:48:24.158Z,2.50
2018-08-19T13:50:51.667Z,2.30
2018-08-19T13:53:19.185Z,3.10
2018-08-19T13:55:46.865Z,3.07
2018-08-19T13:58:14.360Z,2.42
2018-08-19T14:00:41.871Z,2.27
2018-08-19T14:03:09.711Z,2.77
2018-08-19T14:05:37.235Z,2.50
2018-08-19T14:08:04.754Z,3.17
2018-08-19T14:10:32.454Z,3.80
2018-08-19T14:13:00.722Z,2.83
2018-08-19T14:15:28.239Z,2.50
2018-08-19T14:17:55.921Z,2.17
2018-08-19T14:20:23.440Z,2.37
2018-08-19T14:22:50.951Z,2.53
2018-08-19T14:25:18.466Z,3.23
2018-08-19T14:27:45.953Z,2.47
2018-08-19T14:30:13.574Z,2.50
2018-08-19T14:32:41.909Z,3.50
2018-08-19T14:35:10.286Z,3.63
2018-08-19T14:37:38.544Z,2.50
2018-08-19T14:40:06.076Z,2.70
2018-08-19T14:42:33.555Z,2.40
2018-08-19T14:45:01.077Z,2.20
2018-08-19T14:47:28.562Z,2.30
2018-08-19T14:49:56.059Z,2.00
2018-08-19T14:52:23.552Z,1.93
2018-08-19T14:54:51.054Z,2.13
2018-08-19T14:57:18.542Z,2.20
2018-08-19T14:59:46.066Z,2.40
2018-08-19T15:02:13.561Z,2.10
2018-08-19T15:04:42.043Z,2.20
2018-08-19T15:07:09.626Z,2.43
2018-08-19T15:09:37.184Z,2.40
2018-08-19T15:12:04.677Z,2.50
2018-08-19T15:14:32.564Z,2.63
2018-08-19T15:17:00.070Z,2.60
2018-08-19T15:19:27.595Z,2.30
2018-08-19T15:21:55.116Z,2.30
2018-08-19T15:24:22.618Z,2.62
2018-08-19T15:26:50.142Z,4.00
2018-08-19T15:29:17.653Z,3.27
2018-08-19T15:31:45.463Z,2.72
2018-08-19T15:34:12.922Z,2.30
2018-08-19T15:36:40.425Z,2.00
2018-08-19T15:39:08.169Z,1.77
2018-08-19T15:41:35.863Z,2.40
2018-08-19T15:44:03.362Z,2.93
2018-08-19T15:46:30.875Z,2.70
2018-08-19T15:48:58.362Z,3.00
2018-08-19T15:51:25.916Z,2.93
2018-08-19T15:53:53.412Z,2.33
2018-08-19T15:56:20.918Z,2.17
2018-08-19T15:58:48.523Z,2.30
2018-08-19T16:01:15.954Z,2.77
2018-08-19T16:03:43.448Z,2.53
2018-08-19T16:06:10.961Z,2.50
2018-08-19T16:08:38.452Z,3.10
2018-08-19T16:11:05.967Z,2.13
2018-08-19T16:13:33.503Z,2.53
2018-08-19T16:16:01.001Z,2.37
2018-08-19T16:18:28.499Z,2.30
2018-08-19T16:20:55.997Z,2.10
2018-08-19T16:23:23.480Z,2.20
2018-08-19T16:25:51.007Z,2.40
2018-08-19T16:28:18.497Z,1.90
2018-08-19T16:30:46.068Z,2.30
2018-08-19T16:33:13.570Z,2.37
2018-08-19T16:35:41.120Z,3.50
2018-08-19T16:38:09.591Z,2.40
2018-08-19T16:40:37.268Z,2.00
2018-08-19T16:43:05.011Z,2.47
2018-08-19T16:45:32.503Z,2.53
2018-08-19T16:48:00.160Z,2.07
2018-08-19T16:50:27.703Z,3.30
2018-08-19T16:52:55.461Z,2.20
2018-08-19T16:55:23.050Z,2.23
2018-08-19T16:57:50.570Z,2.60
2018-08-19T17:00:18.082Z,2.17
2018-08-19T17:02:45.866Z,2.13
2018-08-19T17:05:13.366Z,2.00
2018-08-19T17:07:40.891Z,1.90
2018-08-19T17:10:09.042Z,2.27
2018-08-19T17:12:36.713Z,2.10
2018-08-19T17:15:04.242Z,2.50
2018-08-19T17:17:31.757Z,2.07
2018-08-19T17:20:00.023Z,2.00
2018-08-19T17:22:27.657Z,2.57
2018-08-19T17:24:55.067Z,1.67
2018-08-19T17:27:22.593Z,2.37
2018-08-19T17:29:50.085Z,2.33
2018-08-19T17:32:17.591Z,2.47
2018-08-19T17:34:45.135Z,1.90
2018-08-19T17:37:12.684Z,2.40
2018-08-19T17:39:40.316Z,2.13
2018-08-19T17:42:08.226Z,2.07
2018-08-19T17:44:35.923Z,3.20
2018-08-19T17:47:03.442Z,2.53
2018-08-19T17:49:30.973Z,2.37
2018-08-19T17:51:58.491Z,2.33
2018-08-19T17:54:25.979Z,2.20
2018-08-19T17:56:53.491Z,2.50
2018-08-19T17:59:21.103Z,2.50
2018-08-19T18:01:48.554Z,2.20
2018-08-19T18:04:16.888Z,2.03
2018-08-19T18:06:44.394Z,2.53
2018-08-19T18:11:40.165Z,2.33
2018-08-19T18:14:07.806Z,5.00
2018-08-19T18:16:35.503Z,3.53
2018-08-19T18:19:02.986Z,3.27
2018-08-19T18:21:30.493Z,3.33
2018-08-19T18:23:58.060Z,3.00
2018-08-19T18:26:25.843Z,2.80
2018-08-19T18:28:53.481Z,2.77
2018-08-19T18:31:20.960Z,3.30
2018-08-19T18:33:48.467Z,2.77
2018-08-19T18:36:16.462Z,4.13
2018-08-19T18:38:45.112Z,3.93
2018-08-19T18:41:12.637Z,3.10
2018-08-19T18:43:40.952Z,2.93
2018-08-19T18:46:08.624Z,2.50
2018-08-19T18:48:36.334Z,3.03
2018-08-19T18:51:03.839Z,3.10
2018-08-19T18:53:31.445Z,3.30
2018-08-19T18:55:58.931Z,3.50
2018-08-19T18:58:26.638Z,3.00
2018-08-19T19:00:54.132Z,3.03
2018-08-19T19:03:21.664Z,3.73
2018-08-19T19:05:49.158Z,3.43
2018-08-19T19:08:17.443Z,3.10
2018-08-19T19:10:44.999Z,4.33
2018-08-19T19:13:12.780Z,4.40
2018-08-19T19:15:40.450Z,4.00
2018-08-19T19:18:07.959Z,4.40
2018-08-19T19:20:35.534Z,4.53
2018-08-19T19:23:03.035Z,4.47
2018-08-19T19:25:30.545Z,4.67
2018-08-19T19:27:58.047Z,4.07
2018-08-19T19:30:25.838Z,4.60
2018-08-19T19:32:53.374Z,4.53
2018-08-19T19:35:20.865Z,3.80
2018-08-19T19:37:48.374Z,3.83
2018-08-19T19:40:16.479Z,4.90
2018-08-19T19:42:44.073Z,5.20
2018-08-19T19:45:11.940Z,4.70
2018-08-19T19:47:39.447Z,5.10
2018-08-19T19:50:06.959Z,5.80
2018-08-19T19:52:34.464Z,5.20
2018-08-19T19:55:01.964Z,4.77
2018-08-19T19:57:29.461Z,5.23
2018-08-19T19:59:57.769Z,5.53
2018-08-19T20:02:25.897Z,5.07
2018-08-19T20:04:53.403Z,6.07
2018-08-19T20:07:20.911Z,5.50
2018-08-19T20:09:48.421Z,6.50
2018-08-19T20:12:15.970Z,6.13
2018-08-19T20:14:43.501Z,6.00
2018-08-19T20:17:11.206Z,6.33
2018-08-19T20:19:38.767Z,7.20
2018-08-19T20:22:06.418Z,6.43
2018-08-19T20:24:33.915Z,6.80
2018-08-19T20:27:01.434Z,6.40
2018-08-19T20:29:29.279Z,6.87
2018-08-19T20:31:57.279Z,6.37
2018-08-19T20:34:26.006Z,5.77
2018-08-19T20:36:53.525Z,7.13
2018-08-19T20:39:21.055Z,6.60
2018-08-19T20:41:48.625Z,6.80
2018-08-19T20:44:17.186Z,7.00
2018-08-19T20:46:44.677Z,6.33
2018-08-19T20:49:12.882Z,6.53
2018-08-19T20:51:40.421Z,8.00
2018-08-19T20:54:07.933Z,19.50
2018-08-19T20:56:36.715Z,7.43
2018-08-19T20:59:04.277Z,7.10
2018-08-19T21:01:31.784Z,6.53
2018-08-19T21:03:59.310Z,6.20
2018-08-19T21:06:26.995Z,8.30
2018-08-19T21:08:54.501Z,5.87
2018-08-19T21:11:22.262Z,6.93
2018-08-19T21:13:50.287Z,6.30
2018-08-19T21:16:17.925Z,6.77
2018-08-19T21:18:45.471Z,6.30
2018-08-19T21:21:13.576Z,6.80
2018-08-19T21:23:41.084Z,7.27
2018-08-19T21:26:08.571Z,7.20
2018-08-19T21:28:36.101Z,7.67
2018-08-19T21:31:03.609Z,6.63
2018-08-19T21:33:31.146Z,6.70
2018-08-19T21:35:58.629Z,7.50
2018-08-19T21:38:26.326Z,7.07
2018-08-19T21:40:53.810Z,7.30
2018-08-19T21:43:21.306Z,6.80
2018-08-19T21:45:48.879Z,7.07
2018-08-19T21:48:16.490Z,6.60
2018-08-19T21:50:43.994Z,6.90
2018-08-19T21:53:11.490Z,6.97
2018-08-19T21:55:39.001Z,7.17
2018-08-19T21:58:06.614Z,6.90
2018-08-19T22:00:34.124Z,6.50
2018-08-19T22:03:01.615Z,7.30
2018-08-19T22:05:30.232Z,6.60
2018-08-19T22:07:57.779Z,7.00
2018-08-19T22:10:25.483Z,7.00
2018-08-19T22:12:53.000Z,6.40
2018-08-19T22:15:21.397Z,7.20
2018-08-19T22:17:50.122Z,6.90
2018-08-19T22:20:17.967Z,7.20
2018-08-19T22:22:45.496Z,6.70
2018-08-19T22:25:13.554Z,6.30
2018-08-19T22:27:41.084Z,7.20
2018-08-19T22:30:08.598Z,6.87
2018-08-19T22:32:36.287Z,6.40
2018-08-19T22:35:03.820Z,7.40
2018-08-19T22:37:31.327Z,6.67
2018-08-19T22:39:58.894Z,7.37
2018-08-19T22:42:26.442Z,6.10
2018-08-19T22:44:53.941Z,7.00
2018-08-19T22:47:21.440Z,6.30
2018-08-19T22:49:48.956Z,7.20
2018-08-19T22:52:16.630Z,6.60
2018-08-19T22:54:44.138Z,6.53
2018-08-19T22:57:11.833Z,6.73
2018-08-19T22:59:40.108Z,7.30
2018-08-19T23:02:07.613Z,6.33
2018-08-19T23:04:35.858Z,6.00
2018-08-19T23:07:03.339Z,6.97
2018-08-19T23:09:30.865Z,7.00
2018-08-19T23:11:58.366Z,7.20
2018-08-19T23:14:28.580Z,7.00
2018-08-19T23:16:56.106Z,6.47
2018-08-19T23:19:23.603Z,7.07
2018-08-19T23:21:51.144Z,7.43
2018-08-19T23:24:18.638Z,7.13
2018-08-19T23:26:46.294Z,6.63
2018-08-19T23:29:14.077Z,6.57
2018-08-19T23:31:41.582Z,7.10
2018-08-19T23:34:09.074Z,6.83
2018-08-19T23:36:36.786Z,7.17
2018-08-19T23:39:04.263Z,6.40
2018-08-19T23:41:31.777Z,6.90
2018-08-19T23:44:00.041Z,7.50
2018-08-19T23:46:27.582Z,6.50
2018-08-19T23:48:55.082Z,7.40
2018-08-19T23:51:22.586Z,6.53
2018-08-19T23:53:50.099Z,6.10
2018-08-19T23:56:17.617Z,6.40
2018-08-19T23:58:45.106Z,6.40
